Terminal Aerodrome Forecast
Issued by NWS

Home | Current Version | Previous Version | Text Only | Print | Product List | Glossary On
Versions: 1 2 3 4 5 6 7 8 9 10 11 12 13 14 15 16 17 18 19 20 21
000
FTUS41 KGYX 220520
TAFPSM
TAF
KPSM 220520Z 2206/2306 19005KT P6SM SCT200
     FM221200 00000KT 5SM -RA OVC040
     FM221500 00000KT 2SM -RA OVC005
     FM221800 32004KT P6SM OVC005 PROB30 2218/2221 2SM -RA OVC003
     FM222200 32009KT P6SM SCT100=

USA.gov is the U.S. government's official web portal to all federal, state and local government web resources and services.